Dover, AR (72837)

3:51 PM CST on December 06, 2016 (GMT -0600)
North Linker Mtn | | Change Station

Elev 787 ft 35.37 °N, 93.12 °W | Updated 3 seconds ago

Scattered Clouds
Scattered Clouds
48.7 °F
Feels Like 49 °F
N
1.3
Wind Variable Wind from NE
Gusts 4.0 mph

Today
High -- | Low -- °F
--% Chance of Precip.
Yesterday
High -- | Low -- °F
Precip. -- in
Pressure 29.95 in
Visibility 10.0 miles
Clouds Scattered Clouds 3300 ft
Windchill 49 °F
Dew Point 39 °F
Humidity 69%
Rainfall 0.12 in
Snow Depth Not available.
7:07 AM 4:59 PM
Waxing Crescent, 45% visible
METAR KRUE 062053Z AUTO 34006KT 10SM SCT033 12/03 A2996 RMK AO2 SLP141 T01220033 53002
Pressure 29.95 in
Visibility 10.0 miles
Clouds Scattered Clouds 3300 ft
Windchill 49 °F
Dew Point 39 °F
Humidity 69%
Rainfall 0.12 in
Snow Depth Not available.
7:07 AM 4:59 PM
Waxing Crescent, 45% visible
METAR KRUE 062053Z AUTO 34006KT 10SM SCT033 12/03 A2996 RMK AO2 SLP141 T01220033 53002

10-Day Weather Forecast

Almanac

Astronomy

Dec. 06, 2016 Rise Set
Actual Time
Civil Twilight
Nautical Twilight
Astronomical Twilight
Moon
Length of Visible Light
Length of Day
Tomorrow will be .
, % of the Moon is Illuminated

Today's Extremes

State Highs State Lows

Community

WunderPhotos

Upload Photos

1,956,033 photos uploaded!

WunderBlog® & News

Nearby

Air Quality

  Air Quality AQ Index Pollutant
Not available.

Snow Depth

Station Depth Elevation

Earthquake Activity

City Distance Mag. Time & Date
Minimum magnitude displayed is 2.5.

Coastal Water Temperatures

Place Temperature

Stations

Nearby Weather Stations

Station Location Temp. Windchill Dew Point Humidity Wind Precip. Elev Updated Type
                   

Watches & Warnings

There are currently no watches in effect.